createdAt,value
2022-10-10T00:08:19.571Z,0
2022-10-10T00:17:56.111Z,0
2022-10-10T00:37:09.583Z,0
2022-10-10T00:46:46.785Z,0
2022-10-10T00:56:23.629Z,0
2022-10-10T01:06:00.734Z,0
2022-10-10T01:15:37.883Z,0
2022-10-10T01:25:14.876Z,0
2022-10-10T01:34:51.952Z,0
2022-10-10T01:44:29.294Z,0
2022-10-10T01:54:06.691Z,0
2022-10-10T02:03:43.874Z,0
2022-10-10T02:13:21.187Z,0
2022-10-10T02:22:58.228Z,0
2022-10-10T02:32:35.163Z,0
2022-10-10T02:42:12.220Z,0
2022-10-10T02:51:48.809Z,0
2022-10-10T03:11:02.225Z,0
2022-10-10T03:30:15.226Z,0
2022-10-10T03:39:51.733Z,0
2022-10-10T03:49:28.486Z,0
2022-10-10T04:08:42.446Z,0
2022-10-10T04:18:19.655Z,0
2022-10-10T04:28:00.787Z,0
2022-10-10T04:37:33.596Z,0
2022-10-10T04:47:10.460Z,0
2022-10-10T04:56:47.173Z,0
2022-10-10T05:06:23.346Z,0
2022-10-10T05:16:01.137Z,0
2022-10-10T05:25:37.221Z,0
2022-10-10T05:44:51.160Z,0
2022-10-10T05:54:28.118Z,0
2022-10-10T06:04:05.156Z,0
2022-10-10T06:13:42.265Z,0
2022-10-10T06:23:18.811Z,0
2022-10-10T06:32:57.156Z,0
2022-10-10T06:42:35.039Z,0
2022-10-10T07:01:51.637Z,0
2022-10-10T07:40:21.856Z,0
2022-10-10T07:49:59.681Z,0
2022-10-10T07:59:37.480Z,0
2022-10-10T08:09:15.306Z,0
2022-10-10T08:18:53.295Z,0
2022-10-10T08:28:31.510Z,0
2022-10-10T08:38:09.440Z,0
2022-10-10T08:47:48.020Z,0
2022-10-10T08:57:26.392Z,0
2022-10-10T09:07:04.365Z,0
2022-10-10T09:16:42.154Z,0
2022-10-10T09:26:19.975Z,0
2022-10-10T09:35:58.018Z,0
2022-10-10T09:45:36.037Z,0
2022-10-10T09:55:14.495Z,0
2022-10-10T10:04:52.724Z,0
2022-10-10T10:14:30.957Z,0
2022-10-10T10:34:29.571Z,6
2022-10-10T10:44:19.987Z,8
2022-10-10T10:54:04.197Z,7
2022-10-10T11:13:26.067Z,7
2022-10-10T11:32:47.390Z,6
2022-10-10T11:42:26.777Z,7
2022-10-10T11:52:15.246Z,7
2022-10-10T12:30:40.312Z,6
2022-10-10T12:40:19.819Z,7
2022-10-10T12:49:57.689Z,6
2022-10-10T13:09:14.987Z,6
2022-10-10T13:28:28.344Z,6
2022-10-10T13:38:05.324Z,5
2022-10-10T13:47:43.641Z,5
2022-10-10T13:57:18.933Z,4
2022-10-10T14:06:56.832Z,4
2022-10-10T14:16:35.363Z,4
2022-10-10T14:26:09.407Z,4
2022-10-10T14:35:54.160Z,4
2022-10-10T14:45:30.342Z,3
2022-10-10T14:54:53.176Z,2
2022-10-10T15:04:14.649Z,1
2022-10-10T15:13:51.256Z,1
2022-10-10T15:23:20.529Z,0
2022-10-10T15:32:54.663Z,0
2022-10-10T15:42:29.608Z,0
2022-10-10T15:52:05.099Z,0
2022-10-10T16:01:40.692Z,0
2022-10-10T16:11:16.452Z,0
2022-10-10T16:20:52.094Z,0
2022-10-10T16:30:27.849Z,0
2022-10-10T16:40:03.459Z,0
2022-10-10T16:49:39.136Z,0
2022-10-10T16:59:15.666Z,0
2022-10-10T17:08:52.071Z,0
2022-10-10T17:18:27.702Z,0
2022-10-10T17:28:04.261Z,0
2022-10-10T17:47:17.181Z,0
2022-10-10T17:56:54.276Z,0
2022-10-10T18:06:30.728Z,0
2022-10-10T18:16:07.476Z,0
2022-10-10T18:35:20.032Z,0
2022-10-10T18:44:56.786Z,0
2022-10-10T18:54:33.502Z,0
2022-10-10T19:04:10.595Z,0
2022-10-10T19:13:46.987Z,0
2022-10-10T19:33:01.078Z,0
2022-10-10T20:01:53.138Z,0
2022-10-10T20:11:28.454Z,0
2022-10-10T20:21:05.139Z,0
2022-10-10T20:30:42.195Z,0
2022-10-10T20:49:55.900Z,0
2022-10-10T21:09:10.284Z,0
2022-10-10T21:18:56.847Z,0
2022-10-10T21:28:24.973Z,0
2022-10-10T21:38:02.425Z,0
2022-10-10T21:47:40.005Z,0
2022-10-10T21:57:16.832Z,0
2022-10-10T22:06:53.826Z,0
2022-10-10T22:16:31.329Z,0
2022-10-10T22:26:08.738Z,0
2022-10-10T22:35:45.910Z,0
2022-10-10T22:45:22.613Z,0
2022-10-10T22:54:59.807Z,0
2022-10-10T23:04:36.652Z,0
2022-10-10T23:14:13.905Z,0
2022-10-10T23:23:51.494Z,0
2022-10-10T23:43:05.438Z,0
2022-10-10T23:52:42.693Z,0
